createdAt,value
2018-09-26T00:01:27.426Z,99.90
2018-09-26T00:04:07.759Z,99.90
2018-09-26T00:06:37.139Z,99.90
2018-09-26T00:09:10.786Z,99.90
2018-09-26T00:11:40.524Z,99.90
2018-09-26T00:14:14.041Z,99.90
2018-09-26T00:16:43.782Z,99.90
2018-09-26T00:19:13.175Z,99.90
2018-09-26T00:21:43.280Z,99.90
2018-09-26T00:24:12.621Z,99.90
2018-09-26T00:26:41.808Z,99.90
2018-09-26T00:29:11.838Z,99.90
2018-09-26T00:31:41.200Z,99.90
2018-09-26T00:34:11.171Z,99.90
2018-09-26T00:36:40.426Z,99.90
2018-09-26T00:39:09.520Z,99.90
2018-09-26T00:41:39.183Z,99.90
2018-09-26T00:44:08.426Z,99.90
2018-09-26T00:46:37.897Z,99.90
2018-09-26T00:49:07.145Z,99.90
2018-09-26T00:51:36.467Z,99.90
2018-09-26T00:54:05.727Z,99.90
2018-09-26T00:56:35.176Z,99.90
2018-09-26T00:59:05.121Z,99.90
2018-09-26T01:01:34.783Z,99.90
2018-09-26T01:04:03.950Z,99.90
2018-09-26T01:06:33.095Z,99.90
2018-09-26T01:09:02.805Z,99.90
2018-09-26T01:11:34.559Z,99.90
2018-09-26T01:14:04.563Z,99.90
2018-09-26T01:16:43.034Z,99.90
2018-09-26T01:19:29.377Z,99.90
2018-09-26T01:21:59.673Z,99.90
2018-09-26T01:24:28.900Z,99.90
2018-09-26T01:26:58.148Z,99.90
2018-09-26T01:29:27.344Z,99.90
2018-09-26T01:31:56.712Z,99.90
2018-09-26T01:34:25.917Z,99.90
2018-09-26T01:36:55.508Z,99.90
2018-09-26T01:39:24.683Z,99.90
2018-09-26T01:41:53.973Z,99.90
2018-09-26T01:44:23.204Z,99.90
2018-09-26T01:46:54.093Z,99.90
2018-09-26T01:49:23.258Z,99.90
2018-09-26T01:51:52.426Z,99.90
2018-09-26T01:54:21.562Z,99.90
2018-09-26T01:56:50.765Z,99.90
2018-09-26T01:59:20.248Z,99.90
2018-09-26T02:01:49.881Z,99.90
2018-09-26T02:04:19.322Z,99.90
2018-09-26T02:06:48.367Z,99.90
2018-09-26T02:09:17.859Z,99.90
2018-09-26T02:11:47.085Z,99.90
2018-09-26T02:14:16.283Z,99.90
2018-09-26T02:16:45.471Z,99.90
2018-09-26T02:19:14.696Z,99.90
2018-09-26T02:21:43.996Z,99.90
2018-09-26T02:24:13.814Z,99.90
2018-09-26T02:26:43.063Z,99.90
2018-09-26T02:29:12.181Z,99.90
2018-09-26T02:31:41.502Z,99.90
2018-09-26T02:34:11.465Z,99.90
2018-09-26T02:36:40.595Z,99.90
2018-09-26T02:39:10.237Z,99.90
2018-09-26T02:41:39.949Z,99.90
2018-09-26T02:44:09.383Z,99.90
2018-09-26T02:46:38.486Z,99.90
2018-09-26T02:49:08.053Z,99.90
2018-09-26T02:51:38.134Z,99.90
2018-09-26T02:54:08.350Z,99.90
2018-09-26T02:56:38.306Z,99.90
2018-09-26T02:59:07.639Z,99.90
2018-09-26T03:01:36.882Z,99.90
2018-09-26T03:04:06.346Z,99.90
2018-09-26T03:06:43.933Z,99.90
2018-09-26T03:09:28.533Z,99.90
2018-09-26T03:11:58.238Z,99.90
2018-09-26T03:14:27.354Z,99.90
2018-09-26T03:16:56.597Z,99.90
2018-09-26T03:19:25.763Z,99.90
2018-09-26T03:21:54.938Z,99.90
2018-09-26T03:24:24.261Z,99.90
2018-09-26T03:26:53.791Z,99.90
2018-09-26T03:29:23.100Z,99.90
2018-09-26T03:31:52.256Z,99.90
2018-09-26T03:34:21.983Z,99.90
2018-09-26T03:36:51.882Z,99.90
2018-09-26T03:39:21.283Z,99.90
2018-09-26T03:41:50.766Z,99.90
2018-09-26T03:44:20.177Z,99.90
2018-09-26T03:46:49.620Z,99.90
2018-09-26T03:49:19.162Z,99.90
2018-09-26T03:51:48.663Z,99.90
2018-09-26T03:54:18.121Z,99.90
2018-09-26T03:56:47.374Z,99.90
2018-09-26T03:59:16.482Z,99.90
2018-09-26T04:01:45.588Z,99.90
2018-09-26T04:04:14.802Z,99.90
2018-09-26T04:06:44.902Z,99.90
2018-09-26T04:09:14.149Z,99.90
2018-09-26T04:11:43.357Z,99.90
2018-09-26T04:14:12.448Z,99.90
2018-09-26T04:16:41.631Z,99.90
2018-09-26T04:19:11.703Z,99.90
2018-09-26T04:21:41.267Z,99.90
2018-09-26T04:24:10.747Z,99.90
2018-09-26T04:26:40.028Z,99.90
2018-09-26T04:29:09.169Z,99.90
2018-09-26T04:31:38.634Z,99.90
2018-09-26T04:34:08.744Z,99.90
2018-09-26T04:36:39.413Z,99.90
2018-09-26T04:39:11.596Z,99.90
2018-09-26T04:41:41.408Z,99.90
2018-09-26T04:44:10.818Z,99.90
2018-09-26T04:46:40.114Z,99.90
2018-09-26T04:49:09.282Z,99.90
2018-09-26T04:51:38.533Z,99.90
2018-09-26T04:54:07.915Z,99.90
2018-09-26T04:56:38.680Z,99.90
2018-09-26T04:59:08.244Z,99.90
2018-09-26T05:01:37.372Z,99.90
2018-09-26T05:04:06.922Z,99.90
2018-09-26T05:06:36.194Z,99.90
2018-09-26T05:09:08.107Z,99.90
2018-09-26T05:11:38.183Z,99.90
2018-09-26T05:14:07.812Z,99.90
2018-09-26T05:16:37.122Z,99.90
2018-09-26T05:19:06.780Z,99.90
2018-09-26T05:21:40.196Z,99.90
2018-09-26T05:24:11.177Z,99.90
2018-09-26T05:26:41.222Z,99.90
2018-09-26T05:29:11.331Z,99.90
2018-09-26T05:31:40.660Z,99.90
2018-09-26T05:34:09.979Z,99.90
2018-09-26T05:36:39.274Z,99.90
2018-09-26T05:39:11.223Z,99.90
2018-09-26T05:41:41.954Z,99.90
2018-09-26T05:44:11.105Z,99.90
2018-09-26T05:46:40.651Z,99.90
2018-09-26T05:49:10.401Z,99.90
2018-09-26T05:51:40.635Z,99.90
2018-09-26T05:54:10.230Z,99.90
2018-09-26T05:56:41.799Z,99.90
2018-09-26T05:59:11.088Z,99.90
2018-09-26T06:01:40.404Z,99.90
2018-09-26T06:04:09.757Z,99.90
2018-09-26T06:06:40.190Z,99.90
2018-09-26T06:09:12.124Z,99.90
2018-09-26T06:11:42.157Z,99.90
2018-09-26T06:14:14.055Z,99.90
2018-09-26T06:16:43.306Z,99.90
2018-09-26T06:19:13.954Z,99.90
2018-09-26T06:21:43.609Z,99.90
2018-09-26T06:24:12.777Z,99.90
2018-09-26T06:26:44.875Z,99.90
2018-09-26T06:29:19.370Z,99.90
2018-09-26T06:31:48.803Z,99.90
2018-09-26T06:34:18.054Z,99.90
2018-09-26T06:36:48.500Z,99.90
2018-09-26T06:39:18.619Z,99.90
2018-09-26T06:41:49.983Z,99.90
2018-09-26T06:44:20.538Z,99.90
2018-09-26T06:46:51.247Z,99.90
2018-09-26T06:49:20.557Z,99.90
2018-09-26T06:51:53.243Z,99.90
2018-09-26T06:54:22.406Z,99.90
2018-09-26T06:56:52.205Z,99.90
2018-09-26T06:59:22.178Z,99.90
2018-09-26T07:01:51.415Z,99.90
2018-09-26T07:04:21.301Z,99.90
2018-09-26T07:06:57.469Z,99.90
2018-09-26T07:09:35.084Z,99.90
2018-09-26T07:12:09.261Z,99.90
2018-09-26T07:14:38.917Z,99.90
2018-09-26T07:17:08.254Z,99.90
2018-09-26T07:19:39.115Z,99.90
2018-09-26T07:22:08.358Z,99.90
2018-09-26T07:24:37.807Z,99.90
2018-09-26T07:27:10.240Z,99.90
2018-09-26T07:29:40.558Z,99.90
2018-09-26T07:32:15.728Z,99.90
2018-09-26T07:34:46.728Z,99.90
2018-09-26T07:37:18.204Z,99.90
2018-09-26T07:39:51.440Z,99.90
2018-09-26T07:42:23.150Z,99.90
2018-09-26T07:44:58.624Z,99.90
2018-09-26T07:47:33.777Z,99.90
2018-09-26T07:50:07.256Z,99.90
2018-09-26T07:52:38.075Z,99.90
2018-09-26T07:55:08.590Z,99.90
2018-09-26T07:57:44.401Z,99.90
2018-09-26T08:00:13.622Z,99.90
2018-09-26T08:02:44.445Z,99.90
2018-09-26T08:05:13.834Z,99.90
2018-09-26T08:07:44.285Z,99.90
2018-09-26T08:10:13.711Z,99.90
2018-09-26T08:12:43.237Z,99.90
2018-09-26T08:15:13.769Z,99.90
2018-09-26T08:17:46.716Z,99.20
2018-09-26T08:20:17.174Z,98.10
2018-09-26T08:22:46.492Z,97.10
2018-09-26T08:25:16.664Z,97.30
2018-09-26T08:27:47.311Z,97.20
2018-09-26T08:30:16.773Z,96.60
2018-09-26T08:32:47.999Z,95.80
2018-09-26T08:35:19.819Z,95.10
2018-09-26T08:37:52.487Z,95.10
2018-09-26T08:40:27.252Z,95.00
2018-09-26T08:42:59.769Z,94.80
2018-09-26T08:45:29.673Z,93.90
2018-09-26T08:47:59.563Z,93.70
2018-09-26T08:50:32.468Z,93.30
2018-09-26T08:53:02.778Z,92.80
2018-09-26T08:55:32.827Z,92.20
2018-09-26T08:58:05.510Z,92.70
2018-09-26T09:00:38.889Z,93.10
2018-09-26T09:03:09.874Z,91.90
2018-09-26T09:05:45.250Z,91.20
2018-09-26T09:08:16.417Z,89.80
2018-09-26T09:10:47.195Z,84.90
2018-09-26T09:13:16.588Z,81.60
2018-09-26T09:15:54.265Z,75.00
2018-09-26T09:18:24.325Z,70.10
2018-09-26T09:21:57.764Z,67.70
2018-09-26T09:24:29.808Z,68.00
2018-09-26T09:27:00.932Z,70.60
2018-09-26T09:29:33.819Z,72.60
2018-09-26T09:32:04.626Z,71.10
2018-09-26T09:34:35.616Z,65.00
2018-09-26T09:37:06.067Z,65.10
2018-09-26T09:39:38.801Z,58.50
2018-09-26T09:42:08.182Z,56.30
2018-09-26T09:44:37.500Z,54.00
2018-09-26T09:47:09.579Z,53.30
2018-09-26T09:49:40.694Z,51.00
2018-09-26T09:52:10.648Z,47.10
2018-09-26T09:54:42.553Z,46.90
2018-09-26T09:57:14.192Z,46.80
2018-09-26T09:59:44.861Z,45.90
2018-09-26T10:02:18.107Z,45.30
2018-09-26T10:04:50.434Z,45.70
2018-09-26T10:07:27.660Z,45.20
2018-09-26T10:10:00.345Z,47.20
2018-09-26T10:12:32.876Z,47.50
2018-09-26T10:15:04.526Z,48.50
2018-09-26T10:17:37.975Z,48.80
2018-09-26T10:20:09.283Z,48.20
2018-09-26T10:22:40.238Z,48.00
2018-09-26T10:25:13.030Z,49.10
2018-09-26T10:27:45.049Z,48.40
2018-09-26T10:30:18.371Z,48.20
2018-09-26T10:32:52.407Z,47.50
2018-09-26T10:35:23.109Z,46.30
2018-09-26T10:37:53.621Z,44.50
2018-09-26T10:40:32.302Z,42.80
2018-09-26T10:43:09.378Z,40.20
2018-09-26T10:45:40.133Z,38.70
2018-09-26T10:48:09.930Z,37.80
2018-09-26T10:50:39.948Z,36.10
2018-09-26T10:53:09.318Z,35.90
2018-09-26T10:55:43.348Z,36.00
2018-09-26T10:58:14.721Z,35.10
2018-09-26T11:00:46.340Z,34.20
2018-09-26T11:03:21.609Z,34.70
2018-09-26T11:05:55.794Z,34.20
2018-09-26T11:08:27.480Z,34.80
2018-09-26T11:11:05.215Z,34.60
2018-09-26T11:13:37.233Z,34.60
2018-09-26T11:16:09.750Z,34.70
2018-09-26T11:18:41.528Z,33.90
2018-09-26T11:21:14.201Z,32.40
2018-09-26T11:23:43.820Z,32.40
2018-09-26T11:26:13.328Z,33.70
2018-09-26T11:28:52.804Z,35.80
2018-09-26T11:31:31.700Z,35.60
2018-09-26T11:34:01.725Z,34.60
2018-09-26T11:36:32.260Z,32.40
2018-09-26T11:39:02.999Z,32.00
2018-09-26T11:41:34.986Z,30.80
2018-09-26T11:44:07.771Z,30.00
2018-09-26T11:46:37.560Z,29.30
2018-09-26T11:49:07.385Z,29.90
2018-09-26T11:51:43.134Z,30.60
2018-09-26T11:54:17.928Z,30.70
2018-09-26T11:56:48.486Z,30.00
2018-09-26T11:59:18.437Z,28.80
2018-09-26T12:01:48.000Z,28.80
2018-09-26T12:04:18.291Z,29.00
2018-09-26T12:06:48.812Z,28.20
2018-09-26T12:09:19.934Z,27.70
2018-09-26T12:11:54.351Z,27.50
2018-09-26T12:14:25.465Z,27.50
2018-09-26T12:16:56.717Z,27.50
2018-09-26T12:19:26.486Z,28.30
2018-09-26T12:21:57.524Z,28.60
2018-09-26T12:24:28.726Z,27.50
2018-09-26T12:27:01.431Z,27.40
2018-09-26T12:29:33.226Z,27.60
2018-09-26T12:32:04.543Z,28.40
2018-09-26T12:34:34.974Z,29.30
2018-09-26T12:37:05.885Z,29.70
2018-09-26T12:39:36.494Z,29.90
2018-09-26T12:42:14.258Z,29.60
2018-09-26T12:47:30.834Z,27.90
2018-09-26T12:50:09.139Z,27.40
2018-09-26T12:52:40.753Z,27.30
2018-09-26T12:55:13.174Z,27.10
2018-09-26T12:57:44.778Z,26.80
2018-09-26T13:00:15.354Z,26.10
2018-09-26T13:02:44.881Z,26.60
2018-09-26T13:05:16.175Z,26.40
2018-09-26T13:07:45.840Z,26.70
2018-09-26T13:10:17.912Z,26.40
2018-09-26T13:12:49.433Z,26.30
2018-09-26T13:15:22.017Z,27.20
2018-09-26T13:17:55.007Z,28.10
2018-09-26T13:20:26.097Z,28.20
2018-09-26T13:22:59.920Z,28.30
2018-09-26T13:25:39.176Z,27.50
2018-09-26T13:31:37.191Z,25.70
2018-09-26T13:34:07.153Z,25.80
2018-09-26T13:36:41.898Z,25.70
2018-09-26T13:42:16.767Z,25.30
2018-09-26T13:45:01.326Z,26.00
2018-09-26T13:47:58.354Z,26.70
2018-09-26T13:50:28.836Z,26.50
2018-09-26T13:52:59.308Z,26.20
2018-09-26T13:55:30.425Z,26.80
2018-09-26T13:58:04.749Z,27.30
2018-09-26T14:00:37.820Z,27.10
2018-09-26T14:03:07.790Z,27.60
2018-09-26T14:05:37.329Z,28.10
2018-09-26T14:08:06.586Z,28.80
2018-09-26T14:10:38.527Z,29.90
2018-09-26T14:13:08.101Z,30.80
2018-09-26T14:15:37.700Z,32.00
2018-09-26T14:18:07.183Z,32.90
2018-09-26T14:20:39.910Z,33.10
2018-09-26T14:23:11.492Z,33.80
2018-09-26T14:25:42.067Z,34.30
2018-09-26T14:28:14.540Z,34.90
2018-09-26T14:30:45.982Z,35.00
2018-09-26T14:33:18.935Z,34.80
2018-09-26T14:35:49.167Z,34.90
2018-09-26T14:38:18.495Z,35.90
2018-09-26T14:40:48.716Z,35.20
2018-09-26T14:43:18.735Z,35.40
2018-09-26T14:45:50.677Z,35.40
2018-09-26T14:48:23.729Z,35.50
2018-09-26T14:54:12.516Z,35.40
2018-09-26T14:56:44.437Z,35.80
2018-09-26T14:59:15.196Z,36.20
2018-09-26T15:01:46.108Z,35.60
2018-09-26T15:04:16.810Z,35.40
2018-09-26T15:06:46.667Z,35.40
2018-09-26T15:09:16.663Z,35.80
2018-09-26T15:11:46.376Z,35.60
2018-09-26T15:14:23.665Z,35.80
2018-09-26T15:16:56.085Z,35.90
2018-09-26T15:19:28.295Z,36.20
2018-09-26T15:22:00.061Z,36.50
2018-09-26T15:24:40.248Z,36.60
2018-09-26T15:27:24.958Z,36.20
2018-09-26T15:30:11.234Z,36.10
2018-09-26T15:32:41.527Z,35.90
2018-09-26T15:35:14.592Z,36.30
2018-09-26T15:37:44.650Z,36.60
2018-09-26T15:41:17.690Z,37.00
2018-09-26T15:43:47.421Z,37.00
2018-09-26T15:46:17.000Z,37.20
2018-09-26T15:48:47.119Z,37.00
2018-09-26T15:51:27.606Z,36.90
2018-09-26T15:54:06.112Z,37.30
2018-09-26T15:56:36.391Z,37.90
2018-09-26T15:59:09.992Z,37.70
2018-09-26T16:01:44.671Z,37.70
2018-09-26T16:04:16.638Z,38.00
2018-09-26T16:06:48.382Z,38.20
2018-09-26T16:09:23.203Z,38.30
2018-09-26T16:12:01.723Z,38.70
2018-09-26T16:14:37.871Z,38.90
2018-09-26T16:17:19.482Z,38.50
2018-09-26T16:19:55.231Z,38.80
2018-09-26T16:22:33.028Z,38.70
2018-09-26T16:25:05.312Z,39.00
2018-09-26T16:27:38.738Z,39.20
2018-09-26T16:30:14.292Z,39.30
2018-09-26T16:32:45.006Z,39.40
2018-09-26T16:35:20.227Z,39.20
2018-09-26T16:37:52.469Z,40.20
2018-09-26T16:40:27.111Z,40.60
2018-09-26T16:43:02.284Z,40.40
2018-09-26T16:45:33.536Z,40.80
2018-09-26T16:48:07.250Z,41.20
2018-09-26T16:50:43.356Z,41.00
2018-09-26T16:53:21.332Z,41.10
2018-09-26T16:55:58.428Z,42.10
2018-09-26T16:58:33.339Z,42.50
2018-09-26T17:01:05.823Z,42.20
2018-09-26T17:03:36.921Z,41.80
2018-09-26T17:06:08.966Z,42.20
2018-09-26T17:08:39.434Z,42.40
2018-09-26T17:11:18.557Z,42.60
2018-09-26T17:14:07.897Z,43.20
2018-09-26T17:16:42.246Z,43.10
2018-09-26T17:19:15.400Z,42.70
2018-09-26T17:21:49.477Z,43.40
2018-09-26T17:24:22.891Z,43.60
2018-09-26T17:26:54.700Z,44.00
2018-09-26T17:29:28.717Z,44.50
2018-09-26T17:32:03.095Z,44.60
2018-09-26T17:34:38.080Z,44.60
2018-09-26T17:37:09.852Z,45.00
2018-09-26T17:39:41.187Z,45.20
2018-09-26T17:42:19.335Z,45.30
2018-09-26T17:44:52.822Z,45.40
2018-09-26T17:47:23.271Z,45.50
2018-09-26T17:49:52.765Z,45.80
2018-09-26T17:52:26.618Z,45.80
2018-09-26T17:55:02.100Z,45.90
2018-09-26T17:57:32.292Z,46.10
2018-09-26T18:00:06.266Z,46.60
2018-09-26T18:02:38.807Z,46.70
2018-09-26T18:05:10.735Z,47.10
2018-09-26T18:07:44.686Z,47.20
2018-09-26T18:10:15.986Z,47.90
2018-09-26T18:12:53.361Z,48.10
2018-09-26T18:15:30.236Z,48.40
2018-09-26T18:18:17.478Z,48.70
2018-09-26T18:22:20.740Z,49.10
2018-09-26T18:24:52.312Z,49.80
2018-09-26T18:27:23.053Z,51.20
2018-09-26T18:29:55.689Z,51.20
2018-09-26T18:32:28.160Z,51.30
2018-09-26T18:35:00.091Z,51.40
2018-09-26T18:37:30.167Z,51.30
2018-09-26T18:40:00.342Z,50.80
2018-09-26T18:42:34.702Z,50.80
2018-09-26T18:45:05.262Z,51.10
2018-09-26T18:47:35.803Z,51.70
2018-09-26T18:50:06.886Z,50.80
2018-09-26T18:52:40.231Z,51.10
2018-09-26T18:55:12.340Z,51.60
2018-09-26T18:57:42.807Z,52.30
2018-09-26T19:00:22.608Z,52.80
2018-09-26T19:03:09.539Z,53.50
2018-09-26T19:05:52.622Z,54.30
2018-09-26T19:08:35.334Z,54.70
2018-09-26T19:11:29.618Z,55.00
2018-09-26T19:14:03.457Z,55.40
2018-09-26T19:16:49.751Z,58.60
2018-09-26T19:19:26.181Z,58.90
2018-09-26T19:22:12.939Z,60.00
2018-09-26T19:25:00.707Z,59.10
2018-09-26T19:27:32.849Z,62.30
2018-09-26T19:30:09.882Z,64.20
2018-09-26T19:32:40.726Z,65.40
2018-09-26T19:35:19.183Z,66.70
2018-09-26T19:37:51.810Z,68.60
2018-09-26T19:40:24.814Z,67.70
2018-09-26T19:42:57.506Z,69.40
2018-09-26T19:45:33.230Z,70.90
2018-09-26T19:48:23.264Z,70.30
2018-09-26T19:50:57.705Z,69.50
2018-09-26T19:53:44.090Z,69.40
2018-09-26T19:56:44.732Z,68.90
2018-09-26T19:59:21.140Z,69.20
2018-09-26T20:01:57.155Z,72.40
2018-09-26T20:04:37.076Z,72.70
2018-09-26T20:07:10.611Z,71.80
2018-09-26T20:10:13.272Z,71.80
2018-09-26T20:12:50.590Z,71.80
2018-09-26T20:15:22.432Z,71.50
2018-09-26T20:17:56.741Z,74.70
2018-09-26T20:20:31.336Z,75.40
2018-09-26T20:23:06.609Z,75.70
2018-09-26T20:25:44.515Z,76.20
2018-09-26T20:28:20.497Z,77.50
2018-09-26T20:30:52.140Z,78.90
2018-09-26T20:33:22.648Z,81.00
2018-09-26T20:35:53.694Z,82.90
2018-09-26T20:38:25.729Z,84.50
2018-09-26T20:41:05.489Z,85.60
2018-09-26T20:43:37.756Z,87.30
2018-09-26T20:46:08.301Z,89.50
2018-09-26T20:48:40.084Z,90.60
2018-09-26T20:51:09.481Z,91.40
2018-09-26T20:53:41.770Z,92.20
2018-09-26T20:56:25.096Z,93.30
2018-09-26T20:59:15.107Z,94.00
2018-09-26T21:01:50.149Z,94.40
2018-09-26T21:04:20.184Z,94.60
2018-09-26T21:06:52.534Z,95.10
2018-09-26T21:09:27.798Z,95.50
2018-09-26T21:12:01.062Z,95.60
2018-09-26T21:14:37.684Z,95.50
2018-09-26T21:17:11.400Z,95.30
2018-09-26T21:19:42.544Z,95.10
2018-09-26T21:22:16.165Z,94.70
2018-09-26T21:24:46.760Z,94.70
2018-09-26T21:27:27.543Z,95.00
2018-09-26T21:30:12.238Z,95.00
2018-09-26T21:32:54.321Z,95.10
2018-09-26T21:35:31.302Z,95.50
2018-09-26T21:38:21.080Z,96.10
2018-09-26T21:40:57.175Z,96.30
2018-09-26T21:43:39.598Z,96.80
2018-09-26T21:46:32.918Z,97.20
2018-09-26T21:49:13.273Z,97.60
2018-09-26T21:51:53.016Z,98.40
2018-09-26T21:54:26.107Z,98.80
2018-09-26T21:57:01.555Z,99.10
2018-09-26T21:59:31.793Z,99.30
2018-09-26T22:02:04.527Z,99.60
2018-09-26T22:04:34.377Z,99.90
2018-09-26T22:07:06.739Z,99.90
2018-09-26T22:09:41.076Z,99.90
2018-09-26T22:12:25.087Z,99.90
2018-09-26T22:14:57.855Z,99.90
2018-09-26T22:17:35.780Z,99.90
2018-09-26T22:20:08.069Z,99.90
2018-09-26T22:22:42.102Z,99.90
2018-09-26T22:25:20.186Z,99.90
2018-09-26T22:27:56.565Z,99.90
2018-09-26T22:30:27.745Z,99.90
2018-09-26T22:33:05.172Z,99.90
2018-09-26T22:35:37.859Z,99.90
2018-09-26T22:38:08.584Z,99.90
2018-09-26T22:40:39.734Z,99.90
2018-09-26T22:43:11.139Z,99.90
2018-09-26T22:45:48.763Z,99.90
2018-09-26T22:48:21.472Z,99.90
2018-09-26T22:50:52.334Z,99.90
2018-09-26T22:53:24.097Z,99.90
2018-09-26T22:55:54.482Z,99.90
2018-09-26T22:58:25.678Z,99.90
2018-09-26T23:00:57.143Z,99.90
2018-09-26T23:06:47.769Z,99.90
2018-09-26T23:09:19.045Z,99.90
2018-09-26T23:12:57.345Z,99.90
2018-09-26T23:15:29.470Z,99.90
2018-09-26T23:18:00.450Z,99.90
2018-09-26T23:20:51.930Z,99.90
2018-09-26T23:23:23.382Z,99.90
2018-09-26T23:25:52.523Z,99.90
2018-09-26T23:28:22.675Z,99.90
2018-09-26T23:30:52.875Z,99.90
2018-09-26T23:33:22.208Z,99.90
2018-09-26T23:35:51.693Z,99.90
2018-09-26T23:38:21.166Z,99.90
2018-09-26T23:40:50.918Z,99.90
2018-09-26T23:43:20.101Z,99.90
2018-09-26T23:45:49.886Z,99.90
2018-09-26T23:48:19.578Z,99.90
2018-09-26T23:50:49.844Z,99.90
2018-09-26T23:53:19.231Z,99.90
2018-09-26T23:55:49.342Z,99.90
2018-09-26T23:58:20.273Z,99.90
